createdAt,value
2023-04-14T00:00:49.940Z,0.93
2023-04-14T00:03:18.460Z,1.00
2023-04-14T00:05:46.429Z,1.00
2023-04-14T00:08:14.247Z,1.30
2023-04-14T00:10:42.242Z,1.07
2023-04-14T00:13:11.337Z,1.00
2023-04-14T00:15:41.426Z,1.23
2023-04-14T00:18:09.245Z,0.93
2023-04-14T00:20:37.318Z,1.33
2023-04-14T00:23:05.147Z,1.20
2023-04-14T00:25:32.983Z,1.13
2023-04-14T00:28:00.761Z,0.87
2023-04-14T00:30:30.368Z,1.10
2023-04-14T00:32:58.155Z,1.00
2023-04-14T00:35:26.070Z,1.43
2023-04-14T00:37:53.772Z,0.97
2023-04-14T00:40:22.067Z,1.27
2023-04-14T00:42:50.650Z,1.00
2023-04-14T00:45:18.314Z,0.87
2023-04-14T00:47:50.700Z,1.13
2023-04-14T00:50:20.273Z,1.10
2023-04-14T00:52:50.277Z,1.10
2023-04-14T00:55:20.178Z,1.20
2023-04-14T00:57:48.097Z,1.13
2023-04-14T01:00:16.757Z,1.20
2023-04-14T01:02:44.789Z,0.90
2023-04-14T01:05:14.130Z,0.90
2023-04-14T01:07:42.524Z,1.10
2023-04-14T01:10:11.393Z,1.13
2023-04-14T01:13:04.492Z,1.40
2023-04-14T01:15:37.432Z,1.00
2023-04-14T01:18:11.987Z,0.83
2023-04-14T01:20:43.440Z,1.00
2023-04-14T01:23:17.124Z,1.00
2023-04-14T01:26:19.965Z,0.83
2023-04-14T01:29:08.749Z,0.83
2023-04-14T01:31:42.625Z,0.90
2023-04-14T01:34:15.445Z,0.80
2023-04-14T01:36:45.914Z,0.70
2023-04-14T01:39:24.551Z,1.00
2023-04-14T01:41:58.138Z,0.90
2023-04-14T01:44:28.077Z,1.00
2023-04-14T01:47:02.332Z,1.27
2023-04-14T01:49:32.904Z,0.70
2023-04-14T01:52:01.753Z,1.10
2023-04-14T01:54:32.725Z,1.60
2023-04-14T01:57:02.801Z,1.17
2023-04-14T01:59:33.199Z,0.90
2023-04-14T02:02:03.695Z,1.20
2023-04-14T02:04:33.261Z,1.43
2023-04-14T02:07:03.994Z,0.80
2023-04-14T02:09:33.312Z,1.10
2023-04-14T02:12:02.282Z,1.10
2023-04-14T02:14:32.823Z,1.30
2023-04-14T02:17:03.562Z,1.00
2023-04-14T02:19:31.980Z,1.27
2023-04-14T02:22:00.328Z,1.00
2023-04-14T02:24:28.539Z,0.77
2023-04-14T02:27:01.387Z,1.10
2023-04-14T02:29:30.175Z,1.03
2023-04-14T02:32:04.633Z,1.00
2023-04-14T02:34:38.163Z,0.93
2023-04-14T02:37:10.995Z,0.97
2023-04-14T02:39:42.919Z,0.80
2023-04-14T02:42:14.800Z,0.90
2023-04-14T02:44:49.669Z,0.90
2023-04-14T02:47:23.959Z,1.20
2023-04-14T02:49:54.859Z,1.20
2023-04-14T02:52:25.734Z,1.30
2023-04-14T02:54:55.024Z,1.13
2023-04-14T02:57:23.832Z,0.87
2023-04-14T02:59:52.952Z,1.00
2023-04-14T03:02:23.265Z,1.00
2023-04-14T03:04:53.387Z,0.83
2023-04-14T03:07:23.208Z,1.30
2023-04-14T03:09:51.586Z,1.60
2023-04-14T03:12:21.018Z,1.40
2023-04-14T03:14:49.454Z,1.30
2023-04-14T03:17:21.157Z,1.07
2023-04-14T03:19:50.661Z,1.00
2023-04-14T03:22:20.577Z,1.33
2023-04-14T03:24:48.478Z,1.57
2023-04-14T03:27:26.233Z,1.17
2023-04-14T03:29:56.411Z,2.00
2023-04-14T03:32:26.234Z,2.23
2023-04-14T03:34:59.101Z,1.70
2023-04-14T03:37:29.082Z,1.80
2023-04-14T03:40:00.672Z,1.80
2023-04-14T03:42:30.412Z,1.40
2023-04-14T03:45:00.654Z,1.37
2023-04-14T03:47:31.664Z,2.30
2023-04-14T03:50:04.319Z,1.60
2023-04-14T03:52:35.591Z,2.00
2023-04-14T03:55:06.720Z,2.10
2023-04-14T03:57:37.275Z,2.10
2023-04-14T04:00:09.110Z,2.30
2023-04-14T04:02:38.476Z,1.97
2023-04-14T04:05:10.290Z,2.20
2023-04-14T04:07:39.957Z,2.00
2023-04-14T04:10:09.586Z,1.80
2023-04-14T04:12:38.600Z,1.90
2023-04-14T04:15:07.936Z,2.40
2023-04-14T04:17:37.017Z,1.80
2023-04-14T04:20:11.126Z,2.10
2023-04-14T04:22:41.955Z,2.50
2023-04-14T04:25:12.562Z,1.80
2023-04-14T04:27:40.322Z,2.37
2023-04-14T04:30:10.152Z,1.87
2023-04-14T04:32:38.393Z,2.40
2023-04-14T04:35:08.270Z,2.80
2023-04-14T04:37:38.809Z,2.73
2023-04-14T04:40:07.959Z,2.53
2023-04-14T04:42:35.972Z,3.40
2023-04-14T04:45:03.812Z,3.23
2023-04-14T04:47:31.740Z,2.80
2023-04-14T04:49:59.557Z,2.70
2023-04-14T04:52:27.385Z,2.90
2023-04-14T04:54:56.681Z,3.10
2023-04-14T04:57:24.590Z,2.30
2023-04-14T04:59:52.497Z,2.30
2023-04-14T05:02:20.452Z,2.47
2023-04-14T05:07:16.758Z,3.13
2023-04-14T05:09:44.467Z,3.43
2023-04-14T05:12:13.673Z,3.33
2023-04-14T05:14:41.606Z,3.40
2023-04-14T05:17:09.385Z,3.70
2023-04-14T05:19:37.132Z,3.90
2023-04-14T05:22:04.893Z,3.77
2023-04-14T05:24:32.877Z,3.83
2023-04-14T05:27:13.717Z,4.17
2023-04-14T05:29:43.782Z,4.20
2023-04-14T05:32:13.425Z,3.40
2023-04-14T05:34:41.308Z,4.23
2023-04-14T05:37:09.458Z,4.27
2023-04-14T05:39:37.375Z,4.20
2023-04-14T05:42:05.633Z,4.30
2023-04-14T05:44:33.430Z,4.10
2023-04-14T05:47:02.666Z,4.50
2023-04-14T05:49:30.601Z,3.60
2023-04-14T05:51:58.759Z,3.57
2023-04-14T05:54:26.489Z,3.53
2023-04-14T05:56:54.276Z,3.37
2023-04-14T05:59:22.081Z,3.87
2023-04-14T06:01:49.924Z,3.53
2023-04-14T06:04:19.303Z,3.27
2023-04-14T06:06:47.307Z,3.73
2023-04-14T06:09:15.077Z,3.33
2023-04-14T06:11:42.797Z,3.20
2023-04-14T06:14:10.709Z,3.43
2023-04-14T06:16:39.552Z,3.53
2023-04-14T06:19:07.361Z,3.60
2023-04-14T06:21:36.509Z,3.27
2023-04-14T06:24:04.288Z,3.20
2023-04-14T06:26:32.657Z,3.10
2023-04-14T06:29:00.725Z,3.13
2023-04-14T06:31:28.847Z,3.37
2023-04-14T06:33:56.647Z,2.80
2023-04-14T06:36:24.560Z,3.40
2023-04-14T06:38:53.800Z,3.13
2023-04-14T06:41:21.603Z,2.77
2023-04-14T06:43:49.331Z,2.70
2023-04-14T06:46:17.449Z,2.93
2023-04-14T06:48:45.245Z,3.03
2023-04-14T06:51:13.794Z,3.20
2023-04-14T06:53:41.658Z,3.00
2023-04-14T06:56:11.109Z,3.37
2023-04-14T06:58:40.117Z,3.10
2023-04-14T07:01:07.993Z,3.03
2023-04-14T07:03:35.765Z,3.30
2023-04-14T07:06:05.131Z,2.93
2023-04-14T07:08:34.891Z,2.50
2023-04-14T07:11:03.864Z,3.03
2023-04-14T07:13:33.768Z,2.60
2023-04-14T07:16:02.318Z,2.30
2023-04-14T07:18:30.514Z,2.27
2023-04-14T07:20:58.848Z,2.50
2023-04-14T07:23:26.736Z,3.10
2023-04-14T07:25:56.544Z,2.63
2023-04-14T07:28:25.443Z,2.07
2023-04-14T07:30:55.084Z,2.40
2023-04-14T07:33:23.658Z,2.70
2023-04-14T07:36:01.932Z,2.33
2023-04-14T07:38:31.021Z,2.87
2023-04-14T07:40:58.751Z,2.10
2023-04-14T07:43:26.564Z,2.07
2023-04-14T07:45:55.711Z,2.17
2023-04-14T07:48:23.536Z,1.83
2023-04-14T07:50:51.307Z,1.90
2023-04-14T07:53:18.991Z,2.30
2023-04-14T07:55:46.815Z,2.13
2023-04-14T07:58:15.885Z,1.90
2023-04-14T08:00:43.869Z,2.13
2023-04-14T08:03:13.773Z,2.07
2023-04-14T08:05:42.576Z,1.87
2023-04-14T08:08:10.736Z,1.80
2023-04-14T08:10:39.075Z,1.70
2023-04-14T08:13:06.899Z,2.27
2023-04-14T08:15:34.661Z,1.80
2023-04-14T08:18:03.002Z,1.60
2023-04-14T08:20:32.278Z,2.03
2023-04-14T08:22:59.952Z,1.40
2023-04-14T08:25:27.816Z,1.90
2023-04-14T08:27:55.594Z,2.03
2023-04-14T08:30:24.172Z,1.60
2023-04-14T08:32:52.124Z,2.00
2023-04-14T08:35:39.714Z,1.67
2023-04-14T08:38:09.452Z,2.00
2023-04-14T08:40:40.374Z,1.70
2023-04-14T08:43:08.578Z,1.47
2023-04-14T08:45:37.384Z,1.20
2023-04-14T08:48:06.102Z,1.00
2023-04-14T08:50:38.480Z,1.43
2023-04-14T08:53:10.029Z,1.03
2023-04-14T08:55:41.779Z,1.53
2023-04-14T08:58:11.564Z,1.50
2023-04-14T09:00:40.168Z,1.40
2023-04-14T09:03:09.347Z,1.20
2023-04-14T09:05:37.791Z,1.40
2023-04-14T09:08:05.889Z,1.40
2023-04-14T09:10:36.060Z,1.30
2023-04-14T09:13:05.454Z,1.70
2023-04-14T09:15:33.372Z,1.00
2023-04-14T09:18:01.336Z,1.20
2023-04-14T09:20:38.298Z,1.20
2023-04-14T09:23:09.373Z,1.03
2023-04-14T09:25:39.531Z,1.40
2023-04-14T09:28:07.546Z,1.27
2023-04-14T09:30:35.688Z,1.30
2023-04-14T09:33:06.335Z,1.10
2023-04-14T09:35:45.916Z,1.10
2023-04-14T09:38:14.001Z,1.20
2023-04-14T09:40:44.974Z,0.70
2023-04-14T09:43:27.131Z,1.10
2023-04-14T09:45:56.634Z,1.20
2023-04-14T09:48:24.992Z,1.10
2023-04-14T09:51:00.278Z,1.20
2023-04-14T09:53:29.717Z,1.30
2023-04-14T09:56:02.562Z,1.40
2023-04-14T09:58:31.635Z,1.40
2023-04-14T10:00:59.850Z,1.50
2023-04-14T10:03:36.005Z,1.50
2023-04-14T10:06:07.260Z,1.70
2023-04-14T10:08:37.176Z,1.50
2023-04-14T10:11:18.029Z,1.83
2023-04-14T10:13:46.517Z,1.80
2023-04-14T10:16:14.816Z,1.70
2023-04-14T10:18:43.166Z,1.97
2023-04-14T10:21:11.484Z,1.53
2023-04-14T10:23:41.305Z,1.57
2023-04-14T10:26:10.042Z,1.13
2023-04-14T10:28:43.104Z,1.00
2023-04-14T10:31:16.111Z,1.03
2023-04-14T10:33:44.327Z,1.20
2023-04-14T10:36:12.134Z,0.93
2023-04-14T10:38:42.308Z,0.90
2023-04-14T10:41:10.708Z,1.13
2023-04-14T10:43:40.437Z,1.00
2023-04-14T10:46:09.725Z,1.20
2023-04-14T10:48:40.054Z,0.80
2023-04-14T10:51:09.699Z,1.10
2023-04-14T10:53:39.808Z,1.23
2023-04-14T10:56:07.998Z,1.10
2023-04-14T10:58:37.684Z,1.27
2023-04-14T11:01:31.518Z,1.20
2023-04-14T11:04:12.068Z,1.40
2023-04-14T11:06:53.557Z,1.40
2023-04-14T11:09:37.141Z,1.30
2023-04-14T11:12:23.093Z,1.30
2023-04-14T11:14:51.530Z,1.30
2023-04-14T11:17:23.159Z,1.00
2023-04-14T11:19:55.191Z,1.33
2023-04-14T11:22:45.942Z,1.10
2023-04-14T11:25:16.279Z,1.10
2023-04-14T11:27:45.472Z,0.80
2023-04-14T11:30:15.651Z,2.57
2023-04-14T11:32:49.062Z,1.13
2023-04-14T11:35:16.971Z,0.90
2023-04-14T11:37:45.999Z,1.07
2023-04-14T11:40:15.043Z,1.07
2023-04-14T11:42:45.183Z,0.90
2023-04-14T11:45:15.419Z,1.50
2023-04-14T11:47:58.045Z,0.87
2023-04-14T11:50:26.478Z,1.73
2023-04-14T11:52:57.452Z,2.20
2023-04-14T11:55:26.754Z,1.10
2023-04-14T11:57:54.888Z,0.93
2023-04-14T12:00:23.075Z,0.80
2023-04-14T12:02:55.640Z,1.03
2023-04-14T12:05:30.416Z,0.80
2023-04-14T12:08:00.151Z,0.70
2023-04-14T12:10:28.258Z,0.80
2023-04-14T12:13:03.188Z,0.77
2023-04-14T12:15:32.677Z,0.90
2023-04-14T12:18:03.058Z,0.60
2023-04-14T12:20:42.827Z,0.83
2023-04-14T12:23:10.942Z,0.90
2023-04-14T12:25:38.701Z,0.90
2023-04-14T12:28:07.113Z,0.77
2023-04-14T12:30:35.998Z,1.00
2023-04-14T12:33:12.069Z,0.90
2023-04-14T12:35:40.705Z,0.90
2023-04-14T12:38:13.788Z,1.07
2023-04-14T12:40:43.903Z,0.87
2023-04-14T12:43:12.043Z,0.90
2023-04-14T12:45:43.947Z,0.60
2023-04-14T12:48:13.974Z,0.80
2023-04-14T12:50:41.837Z,0.70
2023-04-14T12:53:25.297Z,1.00
2023-04-14T12:56:07.187Z,0.80
2023-04-14T12:58:35.235Z,0.80
2023-04-14T13:01:03.040Z,0.70
2023-04-14T13:03:44.853Z,0.70
2023-04-14T13:06:16.326Z,0.80
2023-04-14T13:08:45.554Z,1.00
2023-04-14T13:11:13.487Z,0.70
2023-04-14T13:13:41.381Z,0.70
2023-04-14T13:16:13.415Z,0.80
2023-04-14T13:18:44.814Z,0.70
2023-04-14T13:21:12.669Z,0.90
2023-04-14T13:23:40.773Z,0.83
2023-04-14T13:26:08.829Z,1.10
2023-04-14T13:28:36.959Z,0.70
2023-04-14T13:31:04.967Z,0.60
2023-04-14T13:33:33.735Z,0.60
2023-04-14T13:36:03.834Z,0.90
2023-04-14T13:38:31.797Z,0.60
2023-04-14T13:40:59.592Z,0.60
2023-04-14T13:43:27.367Z,0.80
2023-04-14T13:45:59.087Z,0.80
2023-04-14T13:48:27.411Z,0.87
2023-04-14T13:50:55.924Z,0.60
2023-04-14T13:53:25.240Z,0.80
2023-04-14T13:55:52.979Z,0.90
2023-04-14T13:58:21.407Z,0.90
2023-04-14T14:00:49.200Z,0.63
2023-04-14T14:03:17.566Z,0.70
2023-04-14T14:05:51.751Z,0.70
2023-04-14T14:08:19.569Z,0.70
2023-04-14T14:10:48.798Z,0.50
2023-04-14T14:13:18.062Z,0.50
2023-04-14T14:15:46.506Z,0.70
2023-04-14T14:18:16.513Z,0.80
2023-04-14T14:20:45.231Z,0.67
2023-04-14T14:23:13.197Z,0.77
2023-04-14T14:25:41.315Z,0.60
2023-04-14T14:28:10.699Z,0.70
2023-04-14T14:30:38.621Z,0.90
2023-04-14T14:33:06.665Z,1.00
2023-04-14T14:35:34.396Z,0.93
2023-04-14T14:38:02.152Z,0.80
2023-04-14T14:40:30.498Z,0.83
2023-04-14T14:42:58.430Z,0.53
2023-04-14T14:45:30.979Z,0.80
2023-04-14T14:48:00.621Z,0.50
2023-04-14T14:50:28.489Z,0.93
2023-04-14T14:52:56.886Z,0.70
2023-04-14T14:55:24.814Z,0.60
2023-04-14T14:57:52.678Z,0.90
2023-04-14T15:00:20.729Z,0.70
2023-04-14T15:02:50.048Z,0.60
2023-04-14T15:05:18.289Z,0.70
2023-04-14T15:07:46.186Z,0.70
2023-04-14T15:10:14.976Z,0.80
2023-04-14T15:12:42.675Z,0.87
2023-04-14T15:15:11.090Z,0.50
2023-04-14T15:17:38.993Z,0.70
2023-04-14T15:20:09.434Z,0.73
2023-04-14T15:22:37.142Z,0.70
2023-04-14T15:25:05.447Z,0.80
2023-04-14T15:27:33.330Z,0.87
2023-04-14T15:30:01.059Z,0.70
2023-04-14T15:32:28.857Z,0.80
2023-04-14T15:34:56.613Z,1.10
2023-04-14T15:37:26.590Z,0.60
2023-04-14T15:39:54.414Z,0.60
2023-04-14T15:42:22.175Z,0.97
2023-04-14T15:44:51.031Z,0.90
2023-04-14T15:47:18.887Z,0.77
2023-04-14T15:49:49.949Z,0.60
2023-04-14T15:52:20.908Z,0.90
2023-04-14T15:54:50.034Z,0.77
2023-04-14T15:57:17.837Z,0.63
2023-04-14T15:59:45.665Z,0.47
2023-04-14T16:02:13.435Z,0.70
2023-04-14T16:04:41.761Z,1.10
2023-04-14T16:07:09.727Z,1.00
2023-04-14T16:09:37.570Z,0.70
2023-04-14T16:12:06.617Z,0.67
2023-04-14T16:14:35.535Z,0.70
2023-04-14T16:17:03.530Z,0.80
2023-04-14T16:19:31.299Z,1.30
2023-04-14T16:21:59.089Z,0.90
2023-04-14T16:24:26.899Z,0.83
2023-04-14T16:26:54.700Z,0.90
2023-04-14T16:29:23.922Z,1.07
2023-04-14T16:31:52.055Z,1.10
2023-04-14T16:34:20.393Z,0.90
2023-04-14T16:36:48.378Z,0.70
2023-04-14T16:39:16.233Z,0.90
2023-04-14T16:41:45.270Z,0.60
2023-04-14T16:44:13.485Z,0.83
2023-04-14T16:46:42.602Z,0.93
2023-04-14T16:49:10.953Z,0.80
2023-04-14T16:51:39.136Z,1.00
2023-04-14T16:54:07.193Z,0.63
2023-04-14T16:56:36.808Z,0.93
2023-04-14T16:59:07.107Z,0.83
2023-04-14T17:01:35.188Z,0.83
2023-04-14T17:04:05.220Z,0.83
2023-04-14T17:06:33.459Z,0.70
2023-04-14T17:09:01.534Z,0.80
2023-04-14T17:11:29.305Z,0.80
2023-04-14T17:13:57.005Z,0.70
2023-04-14T17:16:24.740Z,0.80
2023-04-14T17:18:53.367Z,0.63
2023-04-14T17:21:23.230Z,0.87
2023-04-14T17:23:51.067Z,0.90
2023-04-14T17:26:18.872Z,1.07
2023-04-14T17:28:46.627Z,0.70
2023-04-14T17:31:15.109Z,0.90
2023-04-14T17:33:43.557Z,0.90
2023-04-14T17:36:14.190Z,0.70
2023-04-14T17:38:43.728Z,1.00
2023-04-14T17:41:12.899Z,1.00
2023-04-14T17:43:41.614Z,0.70
2023-04-14T17:46:10.327Z,0.70
2023-04-14T17:48:38.348Z,0.90
2023-04-14T17:51:06.435Z,1.00
2023-04-14T17:53:34.217Z,1.10
2023-04-14T17:56:03.494Z,0.80
2023-04-14T17:58:31.816Z,1.00
2023-04-14T18:00:59.628Z,0.80
2023-04-14T18:03:28.488Z,1.07
2023-04-14T18:05:56.565Z,1.00
2023-04-14T18:08:24.711Z,1.20
2023-04-14T18:10:52.454Z,1.00
2023-04-14T18:13:21.555Z,0.80
2023-04-14T18:15:50.641Z,1.10
2023-04-14T18:18:18.414Z,0.97
2023-04-14T18:20:46.796Z,0.77
2023-04-14T18:23:14.541Z,1.07
2023-04-14T18:28:13.202Z,0.70
2023-04-14T18:30:42.394Z,1.00
2023-04-14T18:33:10.389Z,1.07
2023-04-14T18:35:38.157Z,0.80
2023-04-14T18:38:06.132Z,1.00
2023-04-14T18:40:38.221Z,0.97
2023-04-14T18:43:06.048Z,1.40
2023-04-14T18:45:33.690Z,1.53
2023-04-14T18:48:02.895Z,2.50
2023-04-14T18:50:31.068Z,1.10
2023-04-14T18:52:59.214Z,1.30
2023-04-14T18:55:37.102Z,1.70
2023-04-14T18:58:13.580Z,2.00
2023-04-14T19:00:43.146Z,2.10
2023-04-14T19:03:12.435Z,1.90
2023-04-14T19:05:40.442Z,2.00
2023-04-14T19:08:08.541Z,2.93
2023-04-14T19:10:37.381Z,6.80
2023-04-14T19:13:05.764Z,5.50
2023-04-14T19:15:33.551Z,4.00
2023-04-14T19:18:01.428Z,2.57
2023-04-14T19:20:34.293Z,2.00
2023-04-14T19:23:02.057Z,1.80
2023-04-14T19:25:30.918Z,1.60
2023-04-14T19:28:01.191Z,1.80
2023-04-14T19:30:29.258Z,1.60
2023-04-14T19:32:57.805Z,1.60
2023-04-14T19:35:25.656Z,1.40
2023-04-14T19:37:56.632Z,1.37
2023-04-14T19:40:24.603Z,1.10
2023-04-14T19:42:55.231Z,1.50
2023-04-14T19:45:23.349Z,1.30
2023-04-14T19:47:51.694Z,1.20
2023-04-14T19:50:20.072Z,1.43
2023-04-14T19:52:49.776Z,1.53
2023-04-14T19:55:19.077Z,1.37
2023-04-14T19:57:47.340Z,1.20
2023-04-14T20:00:16.876Z,1.60
2023-04-14T20:02:45.181Z,1.17
2023-04-14T20:05:14.008Z,1.10
2023-04-14T20:07:41.781Z,1.30
2023-04-14T20:10:10.803Z,1.30
2023-04-14T20:12:40.392Z,1.33
2023-04-14T20:15:09.307Z,1.33
2023-04-14T20:17:37.092Z,1.40
2023-04-14T20:20:05.847Z,1.10
2023-04-14T20:22:34.227Z,1.37
2023-04-14T20:25:02.264Z,1.23
2023-04-14T20:27:30.060Z,1.27
2023-04-14T20:29:59.661Z,1.30
2023-04-14T20:32:27.570Z,1.70
2023-04-14T20:34:55.511Z,1.30
2023-04-14T20:37:23.530Z,1.40
2023-04-14T20:39:52.526Z,1.40
2023-04-14T20:42:20.825Z,1.33
2023-04-14T20:44:48.699Z,1.30
2023-04-14T20:47:17.974Z,1.30
2023-04-14T20:49:45.676Z,1.30
2023-04-14T20:52:14.088Z,1.23
2023-04-14T20:54:41.796Z,1.60
2023-04-14T20:57:09.966Z,1.40
2023-04-14T20:59:37.758Z,1.60
2023-04-14T21:02:05.686Z,1.50
2023-04-14T21:04:34.830Z,1.30
2023-04-14T21:07:02.764Z,1.40
2023-04-14T21:09:31.026Z,1.70
2023-04-14T21:12:14.317Z,1.40
2023-04-14T21:15:41.411Z,1.50
2023-04-14T21:17:31.986Z,1.23
2023-04-14T21:20:01.343Z,1.20
2023-04-14T21:22:29.105Z,1.90
2023-04-14T21:24:56.942Z,1.80
2023-04-14T21:27:24.851Z,1.70
2023-04-14T21:29:52.841Z,1.40
2023-04-14T21:32:20.760Z,1.37
2023-04-14T21:34:48.636Z,1.37
2023-04-14T21:37:19.055Z,1.23
2023-04-14T21:39:47.129Z,1.60
2023-04-14T21:42:14.965Z,1.50
2023-04-14T21:44:42.853Z,1.67
2023-04-14T21:47:10.926Z,1.90
2023-04-14T21:49:38.693Z,2.07
2023-04-14T21:52:06.569Z,1.90
2023-04-14T21:54:38.809Z,2.30
2023-04-14T21:57:06.884Z,2.60
2023-04-14T21:59:34.895Z,2.80
2023-04-14T22:02:03.855Z,2.07
2023-04-14T22:04:36.368Z,2.87
2023-04-14T22:07:05.503Z,2.40
2023-04-14T22:09:34.397Z,3.20
2023-04-14T22:12:03.716Z,2.80
2023-04-14T22:14:31.543Z,2.53
2023-04-14T22:17:00.915Z,2.37
2023-04-14T22:19:29.918Z,2.00
2023-04-14T22:21:57.665Z,1.83
2023-04-14T22:24:25.466Z,1.63
2023-04-14T22:26:54.045Z,1.63
2023-04-14T22:29:23.247Z,1.70
2023-04-14T22:31:51.268Z,1.93
2023-04-14T22:34:19.076Z,1.80
2023-04-14T22:36:47.102Z,1.70
2023-04-14T22:39:14.994Z,1.80
2023-04-14T22:41:45.349Z,1.90
2023-04-14T22:44:13.332Z,2.00
2023-04-14T22:46:42.524Z,1.93
2023-04-14T22:49:10.589Z,1.87
2023-04-14T22:51:38.524Z,1.67
2023-04-14T22:54:06.668Z,1.87
2023-04-14T22:56:34.611Z,1.97
2023-04-14T22:59:03.014Z,2.07
2023-04-14T23:01:31.051Z,2.00
2023-04-14T23:04:00.670Z,1.80
2023-04-14T23:06:28.660Z,2.10
2023-04-14T23:08:56.443Z,1.90
2023-04-14T23:11:24.242Z,2.03
2023-04-14T23:13:52.158Z,1.83
2023-04-14T23:16:20.732Z,1.80
2023-04-14T23:18:51.987Z,1.80
2023-04-14T23:21:22.222Z,1.83
2023-04-14T23:23:50.296Z,2.17
2023-04-14T23:26:19.603Z,1.77
2023-04-14T23:28:47.819Z,2.00
2023-04-14T23:31:15.731Z,1.60
2023-04-14T23:33:43.699Z,1.90
2023-04-14T23:36:11.708Z,1.77
2023-04-14T23:38:41.162Z,1.93
2023-04-14T23:41:09.034Z,2.20
2023-04-14T23:43:36.853Z,1.83
2023-04-14T23:46:04.864Z,1.73
2023-04-14T23:48:32.755Z,2.20
2023-04-14T23:51:15.556Z,1.80
2023-04-14T23:53:45.592Z,2.00
2023-04-14T23:56:13.387Z,2.20
2023-04-14T23:58:41.218Z,2.20
